sensor_id;sensor_type;location;lat;lon;timestamp;temperature;humidity
55083;DHT22;40978;52.850;6.506;2022-11-18T00:01:21;7.00;99.90
55083;DHT22;40978;52.850;6.506;2022-11-18T00:03:48;7.00;99.90
55083;DHT22;40978;52.850;6.506;2022-11-18T00:06:16;7.00;99.90
55083;DHT22;40978;52.850;6.506;2022-11-18T00:08:42;7.10;99.90
55083;DHT22;40978;52.850;6.506;2022-11-18T00:11:13;7.00;99.90
55083;DHT22;40978;52.850;6.506;2022-11-18T00:13:58;7.10;99.90
55083;DHT22;40978;52.850;6.506;2022-11-18T00:16:42;7.10;99.90
55083;DHT22;40978;52.850;6.506;2022-11-18T00:19:08;7.10;99.90
55083;DHT22;40978;52.850;6.506;2022-11-18T00:21:33;7.20;99.90
55083;DHT22;40978;52.850;6.506;2022-11-18T00:23:59;7.20;99.90
55083;DHT22;40978;52.850;6.506;2022-11-18T00:26:25;7.20;99.90
55083;DHT22;40978;52.850;6.506;2022-11-18T00:28:51;7.20;99.90
55083;DHT22;40978;52.850;6.506;2022-11-18T00:31:16;7.20;99.90
55083;DHT22;40978;52.850;6.506;2022-11-18T00:33:42;7.20;99.90
55083;DHT22;40978;52.850;6.506;2022-11-18T00:36:10;7.20;99.90
55083;DHT22;40978;52.850;6.506;2022-11-18T00:38:36;7.20;99.90
55083;DHT22;40978;52.850;6.506;2022-11-18T00:41:13;7.20;99.90
55083;DHT22;40978;52.850;6.506;2022-11-18T00:43:39;7.30;99.90
55083;DHT22;40978;52.850;6.506;2022-11-18T00:46:07;7.20;99.90
55083;DHT22;40978;52.850;6.506;2022-11-18T00:48:33;7.20;99.90
55083;DHT22;40978;52.850;6.506;2022-11-18T00:51:13;7.20;99.90
55083;DHT22;40978;52.850;6.506;2022-11-18T00:53:39;7.20;99.90
55083;DHT22;40978;52.850;6.506;2022-11-18T00:56:05;7.30;99.90
55083;DHT22;40978;52.850;6.506;2022-11-18T00:58:31;7.30;99.90
55083;DHT22;40978;52.850;6.506;2022-11-18T01:00:58;7.20;99.90
55083;DHT22;40978;52.850;6.506;2022-11-18T01:03:23;7.30;99.90
55083;DHT22;40978;52.850;6.506;2022-11-18T01:05:50;7.30;99.90
55083;DHT22;40978;52.850;6.506;2022-11-18T01:08:16;7.30;99.90
55083;DHT22;40978;52.850;6.506;2022-11-18T01:10:44;7.30;99.90
55083;DHT22;40978;52.850;6.506;2022-11-18T01:13:12;7.30;99.90
55083;DHT22;40978;52.850;6.506;2022-11-18T01:15:52;7.30;99.90
55083;DHT22;40978;52.850;6.506;2022-11-18T01:18:21;7.30;99.90
55083;DHT22;40978;52.850;6.506;2022-11-18T01:20:48;7.30;99.90
55083;DHT22;40978;52.850;6.506;2022-11-18T01:23:14;7.30;99.90
55083;DHT22;40978;52.850;6.506;2022-11-18T01:25:41;7.30;99.90
55083;DHT22;40978;52.850;6.506;2022-11-18T01:28:08;7.30;99.90
55083;DHT22;40978;52.850;6.506;2022-11-18T01:30:35;7.30;99.90
55083;DHT22;40978;52.850;6.506;2022-11-18T01:33:02;7.30;99.90
55083;DHT22;40978;52.850;6.506;2022-11-18T01:35:40;7.30;99.90
55083;DHT22;40978;52.850;6.506;2022-11-18T01:38:07;7.30;99.90
55083;DHT22;40978;52.850;6.506;2022-11-18T01:40:34;7.30;99.90
55083;DHT22;40978;52.850;6.506;2022-11-18T01:43:01;7.40;99.90
55083;DHT22;40978;52.850;6.506;2022-11-18T01:45:33;7.30;99.90
55083;DHT22;40978;52.850;6.506;2022-11-18T01:48:10;7.30;99.90
55083;DHT22;40978;52.850;6.506;2022-11-18T01:50:40;7.30;99.90
55083;DHT22;40978;52.850;6.506;2022-11-18T01:53:21;7.30;99.90
55083;DHT22;40978;52.850;6.506;2022-11-18T01:55:50;7.40;99.90
55083;DHT22;40978;52.850;6.506;2022-11-18T01:58:23;7.40;99.90
55083;DHT22;40978;52.850;6.506;2022-11-18T02:00:50;7.30;99.90
55083;DHT22;40978;52.850;6.506;2022-11-18T02:03:16;7.40;99.90
55083;DHT22;40978;52.850;6.506;2022-11-18T02:05:43;7.30;99.90
55083;DHT22;40978;52.850;6.506;2022-11-18T02:08:11;7.40;99.90
55083;DHT22;40978;52.850;6.506;2022-11-18T02:10:37;7.30;99.90
55083;DHT22;40978;52.850;6.506;2022-11-18T02:13:03;7.40;99.90
55083;DHT22;40978;52.850;6.506;2022-11-18T02:19:09;7.40;99.90
55083;DHT22;40978;52.850;6.506;2022-11-18T02:27:39;7.30;99.90
55083;DHT22;40978;52.850;6.506;2022-11-18T02:30:12;7.30;99.90
55083;DHT22;40978;52.850;6.506;2022-11-18T02:32:43;7.30;99.90
55083;DHT22;40978;52.850;6.506;2022-11-18T02:38:01;7.30;99.90
55083;DHT22;40978;52.850;6.506;2022-11-18T02:40:40;7.40;99.90
55083;DHT22;40978;52.850;6.506;2022-11-18T02:43:15;7.40;99.90
55083;DHT22;40978;52.850;6.506;2022-11-18T02:45:48;7.40;99.90
55083;DHT22;40978;52.850;6.506;2022-11-18T02:48:14;7.40;99.90
55083;DHT22;40978;52.850;6.506;2022-11-18T02:50:42;7.40;99.90
55083;DHT22;40978;52.850;6.506;2022-11-18T02:53:11;7.40;99.90
55083;DHT22;40978;52.850;6.506;2022-11-18T02:55:38;7.30;99.90
55083;DHT22;40978;52.850;6.506;2022-11-18T02:58:05;7.30;99.90
55083;DHT22;40978;52.850;6.506;2022-11-18T03:00:32;7.30;99.90
55083;DHT22;40978;52.850;6.506;2022-11-18T03:02:58;7.30;99.90
55083;DHT22;40978;52.850;6.506;2022-11-18T03:05:34;7.30;99.90
55083;DHT22;40978;52.850;6.506;2022-11-18T03:08:07;7.30;99.90
55083;DHT22;40978;52.850;6.506;2022-11-18T03:10:38;7.30;99.90
55083;DHT22;40978;52.850;6.506;2022-11-18T03:13:16;7.30;99.90
55083;DHT22;40978;52.850;6.506;2022-11-18T03:15:55;7.30;99.90
55083;DHT22;40978;52.850;6.506;2022-11-18T03:18:26;7.30;99.90
55083;DHT22;40978;52.850;6.506;2022-11-18T03:21:00;7.20;99.90
55083;DHT22;40978;52.850;6.506;2022-11-18T03:23:41;7.20;99.90
55083;DHT22;40978;52.850;6.506;2022-11-18T03:26:17;7.20;99.90
55083;DHT22;40978;52.850;6.506;2022-11-18T03:29:05;7.20;99.90
55083;DHT22;40978;52.850;6.506;2022-11-18T03:31:41;7.30;99.90
55083;DHT22;40978;52.850;6.506;2022-11-18T03:34:21;7.30;99.90
55083;DHT22;40978;52.850;6.506;2022-11-18T03:36:54;7.20;99.90
55083;DHT22;40978;52.850;6.506;2022-11-18T03:39:22;7.30;99.90
55083;DHT22;40978;52.850;6.506;2022-11-18T03:41:54;7.30;99.90
55083;DHT22;40978;52.850;6.506;2022-11-18T03:44:33;7.20;99.90
55083;DHT22;40978;52.850;6.506;2022-11-18T03:47:05;7.20;99.90
55083;DHT22;40978;52.850;6.506;2022-11-18T03:49:50;7.20;99.90
55083;DHT22;40978;52.850;6.506;2022-11-18T03:52:27;7.30;99.90
55083;DHT22;40978;52.850;6.506;2022-11-18T03:54:56;7.30;99.90
55083;DHT22;40978;52.850;6.506;2022-11-18T03:57:41;7.30;99.90
55083;DHT22;40978;52.850;6.506;2022-11-18T04:00:10;7.30;99.90
55083;DHT22;40978;52.850;6.506;2022-11-18T04:02:37;7.30;99.90
55083;DHT22;40978;52.850;6.506;2022-11-18T04:05:05;7.20;99.90
55083;DHT22;40978;52.850;6.506;2022-11-18T04:10:24;7.30;99.90
55083;DHT22;40978;52.850;6.506;2022-11-18T04:13:50;7.30;99.90
55083;DHT22;40978;52.850;6.506;2022-11-18T04:15:57;7.20;99.90
55083;DHT22;40978;52.850;6.506;2022-11-18T04:18:23;7.30;99.90
55083;DHT22;40978;52.850;6.506;2022-11-18T04:20:48;7.20;99.90
55083;DHT22;40978;52.850;6.506;2022-11-18T04:23:14;7.30;99.90
55083;DHT22;40978;52.850;6.506;2022-11-18T04:25:40;7.20;99.90
55083;DHT22;40978;52.850;6.506;2022-11-18T04:28:06;7.20;99.90
55083;DHT22;40978;52.850;6.506;2022-11-18T04:30:32;7.20;99.90
55083;DHT22;40978;52.850;6.506;2022-11-18T04:32:58;7.20;99.90
55083;DHT22;40978;52.850;6.506;2022-11-18T04:35:24;7.20;99.90
55083;DHT22;40978;52.850;6.506;2022-11-18T04:37:50;7.20;99.90
55083;DHT22;40978;52.850;6.506;2022-11-18T04:40:16;7.20;99.90
55083;DHT22;40978;52.850;6.506;2022-11-18T04:42:41;7.20;99.90
55083;DHT22;40978;52.850;6.506;2022-11-18T04:45:08;7.20;99.90
55083;DHT22;40978;52.850;6.506;2022-11-18T04:47:34;7.20;99.90
55083;DHT22;40978;52.850;6.506;2022-11-18T04:50:00;7.20;99.90
55083;DHT22;40978;52.850;6.506;2022-11-18T04:52:25;7.20;99.90
55083;DHT22;40978;52.850;6.506;2022-11-18T04:54:51;7.20;99.90
55083;DHT22;40978;52.850;6.506;2022-11-18T04:57:17;7.20;99.90
55083;DHT22;40978;52.850;6.506;2022-11-18T04:59:42;7.10;99.90
55083;DHT22;40978;52.850;6.506;2022-11-18T05:02:08;7.20;99.90
55083;DHT22;40978;52.850;6.506;2022-11-18T05:04:34;7.10;99.90
55083;DHT22;40978;52.850;6.506;2022-11-18T05:07:02;7.10;99.90
55083;DHT22;40978;52.850;6.506;2022-11-18T05:09:28;7.20;99.90
55083;DHT22;40978;52.850;6.506;2022-11-18T05:11:54;7.10;99.90
55083;DHT22;40978;52.850;6.506;2022-11-18T05:14:38;7.10;99.90
55083;DHT22;40978;52.850;6.506;2022-11-18T05:17:06;7.10;99.90
55083;DHT22;40978;52.850;6.506;2022-11-18T05:19:32;7.10;99.90
55083;DHT22;40978;52.850;6.506;2022-11-18T05:21:59;7.10;99.90
55083;DHT22;40978;52.850;6.506;2022-11-18T05:24:25;7.00;99.90
55083;DHT22;40978;52.850;6.506;2022-11-18T05:26:52;7.00;99.90
55083;DHT22;40978;52.850;6.506;2022-11-18T05:29:19;7.00;99.90
55083;DHT22;40978;52.850;6.506;2022-11-18T05:31:46;7.00;99.90
55083;DHT22;40978;52.850;6.506;2022-11-18T05:34:13;7.00;99.90
55083;DHT22;40978;52.850;6.506;2022-11-18T05:36:39;7.00;99.90
55083;DHT22;40978;52.850;6.506;2022-11-18T05:39:05;7.10;99.90
55083;DHT22;40978;52.850;6.506;2022-11-18T05:41:30;7.00;99.90
55083;DHT22;40978;52.850;6.506;2022-11-18T05:44:15;7.00;99.90
55083;DHT22;40978;52.850;6.506;2022-11-18T05:46:41;7.00;99.90
55083;DHT22;40978;52.850;6.506;2022-11-18T05:49:07;7.00;99.90
55083;DHT22;40978;52.850;6.506;2022-11-18T05:51:33;7.10;99.90
55083;DHT22;40978;52.850;6.506;2022-11-18T05:54:02;7.10;99.90
55083;DHT22;40978;52.850;6.506;2022-11-18T05:56:39;7.10;99.90
55083;DHT22;40978;52.850;6.506;2022-11-18T05:59:06;7.00;99.90
55083;DHT22;40978;52.850;6.506;2022-11-18T06:01:37;7.00;99.90
55083;DHT22;40978;52.850;6.506;2022-11-18T06:04:09;7.00;99.90
55083;DHT22;40978;52.850;6.506;2022-11-18T06:06:36;7.00;99.90
55083;DHT22;40978;52.850;6.506;2022-11-18T06:09:04;7.00;99.90
55083;DHT22;40978;52.850;6.506;2022-11-18T06:11:36;7.00;99.90
55083;DHT22;40978;52.850;6.506;2022-11-18T06:14:11;7.10;99.90
55083;DHT22;40978;52.850;6.506;2022-11-18T06:16:43;7.00;99.90
55083;DHT22;40978;52.850;6.506;2022-11-18T06:19:09;7.00;99.90
55083;DHT22;40978;52.850;6.506;2022-11-18T06:21:36;7.00;99.90
55083;DHT22;40978;52.850;6.506;2022-11-18T06:24:02;7.00;99.90
55083;DHT22;40978;52.850;6.506;2022-11-18T06:26:28;6.90;99.90
55083;DHT22;40978;52.850;6.506;2022-11-18T06:28:55;7.00;99.90
55083;DHT22;40978;52.850;6.506;2022-11-18T06:31:21;6.90;99.90
55083;DHT22;40978;52.850;6.506;2022-11-18T06:33:46;6.90;99.90
55083;DHT22;40978;52.850;6.506;2022-11-18T06:36:12;6.90;99.90
55083;DHT22;40978;52.850;6.506;2022-11-18T06:38:37;6.90;99.90
55083;DHT22;40978;52.850;6.506;2022-11-18T06:41:03;6.90;99.90
55083;DHT22;40978;52.850;6.506;2022-11-18T06:43:29;6.90;99.90
55083;DHT22;40978;52.850;6.506;2022-11-18T06:46:11;6.90;99.90
55083;DHT22;40978;52.850;6.506;2022-11-18T06:48:56;6.90;99.90
55083;DHT22;40978;52.850;6.506;2022-11-18T06:51:22;6.90;99.90
55083;DHT22;40978;52.850;6.506;2022-11-18T06:53:48;6.80;99.90
55083;DHT22;40978;52.850;6.506;2022-11-18T06:56:15;6.90;99.90
55083;DHT22;40978;52.850;6.506;2022-11-18T06:58:41;6.90;99.90
55083;DHT22;40978;52.850;6.506;2022-11-18T07:01:15;6.80;99.90
55083;DHT22;40978;52.850;6.506;2022-11-18T07:03:43;6.90;99.90
55083;DHT22;40978;52.850;6.506;2022-11-18T07:06:10;6.80;99.90
55083;DHT22;40978;52.850;6.506;2022-11-18T07:08:37;6.90;99.90
55083;DHT22;40978;52.850;6.506;2022-11-18T07:11:04;6.80;99.90
55083;DHT22;40978;52.850;6.506;2022-11-18T07:13:31;6.80;99.90
55083;DHT22;40978;52.850;6.506;2022-11-18T07:16:14;6.80;99.90
55083;DHT22;40978;52.850;6.506;2022-11-18T07:18:41;6.80;99.90
55083;DHT22;40978;52.850;6.506;2022-11-18T07:21:18;6.70;99.90
55083;DHT22;40978;52.850;6.506;2022-11-18T07:23:45;6.80;99.90
55083;DHT22;40978;52.850;6.506;2022-11-18T07:26:11;6.70;99.90
55083;DHT22;40978;52.850;6.506;2022-11-18T07:28:37;6.70;99.90
55083;DHT22;40978;52.850;6.506;2022-11-18T07:31:18;6.70;99.90
55083;DHT22;40978;52.850;6.506;2022-11-18T07:33:45;6.70;99.90
55083;DHT22;40978;52.850;6.506;2022-11-18T07:36:16;6.70;99.90
55083;DHT22;40978;52.850;6.506;2022-11-18T07:38:42;6.70;99.90
55083;DHT22;40978;52.850;6.506;2022-11-18T07:41:11;6.60;99.90
55083;DHT22;40978;52.850;6.506;2022-11-18T07:43:38;6.60;99.90
55083;DHT22;40978;52.850;6.506;2022-11-18T07:46:23;6.60;99.90
55083;DHT22;40978;52.850;6.506;2022-11-18T07:48:51;6.70;99.90
55083;DHT22;40978;52.850;6.506;2022-11-18T07:51:18;6.60;99.90
55083;DHT22;40978;52.850;6.506;2022-11-18T07:53:44;6.60;99.90
55083;DHT22;40978;52.850;6.506;2022-11-18T07:56:12;6.70;99.90
55083;DHT22;40978;52.850;6.506;2022-11-18T07:58:39;6.70;99.90
55083;DHT22;40978;52.850;6.506;2022-11-18T08:01:09;6.60;99.90
55083;DHT22;40978;52.850;6.506;2022-11-18T08:03:35;6.70;99.90
55083;DHT22;40978;52.850;6.506;2022-11-18T08:06:02;6.70;99.90
55083;DHT22;40978;52.850;6.506;2022-11-18T08:08:28;6.60;99.90
55083;DHT22;40978;52.850;6.506;2022-11-18T08:10:55;6.60;99.90
55083;DHT22;40978;52.850;6.506;2022-11-18T08:13:22;6.60;99.90
55083;DHT22;40978;52.850;6.506;2022-11-18T08:15:47;6.60;99.90
55083;DHT22;40978;52.850;6.506;2022-11-18T08:18:13;6.60;99.90
55083;DHT22;40978;52.850;6.506;2022-11-18T08:20:39;6.60;99.90
55083;DHT22;40978;52.850;6.506;2022-11-18T08:23:04;6.50;99.90
55083;DHT22;40978;52.850;6.506;2022-11-18T08:25:30;6.50;99.90
55083;DHT22;40978;52.850;6.506;2022-11-18T08:27:56;6.60;99.90
55083;DHT22;40978;52.850;6.506;2022-11-18T08:30:21;6.60;99.90
55083;DHT22;40978;52.850;6.506;2022-11-18T08:32:47;6.60;99.90
55083;DHT22;40978;52.850;6.506;2022-11-18T08:35:13;6.70;99.90
55083;DHT22;40978;52.850;6.506;2022-11-18T08:37:39;6.60;99.90
55083;DHT22;40978;52.850;6.506;2022-11-18T08:40:05;6.70;99.90
55083;DHT22;40978;52.850;6.506;2022-11-18T08:42:31;6.60;99.90
55083;DHT22;40978;52.850;6.506;2022-11-18T08:44:57;6.60;99.90
55083;DHT22;40978;52.850;6.506;2022-11-18T08:47:22;6.60;99.90
55083;DHT22;40978;52.850;6.506;2022-11-18T08:49:48;6.60;99.90
55083;DHT22;40978;52.850;6.506;2022-11-18T08:52:14;6.60;99.90
55083;DHT22;40978;52.850;6.506;2022-11-18T08:54:40;6.70;99.90
55083;DHT22;40978;52.850;6.506;2022-11-18T08:57:05;6.70;99.90
55083;DHT22;40978;52.850;6.506;2022-11-18T08:59:31;6.60;99.90
55083;DHT22;40978;52.850;6.506;2022-11-18T09:01:57;6.60;99.90
55083;DHT22;40978;52.850;6.506;2022-11-18T09:04:23;6.60;99.90
55083;DHT22;40978;52.850;6.506;2022-11-18T09:06:48;6.60;99.90
55083;DHT22;40978;52.850;6.506;2022-11-18T09:09:14;6.60;99.90
55083;DHT22;40978;52.850;6.506;2022-11-18T09:11:40;6.60;99.90
55083;DHT22;40978;52.850;6.506;2022-11-18T09:14:06;6.60;99.90
55083;DHT22;40978;52.850;6.506;2022-11-18T09:16:35;6.50;99.90
55083;DHT22;40978;52.850;6.506;2022-11-18T09:19:01;6.60;99.90
55083;DHT22;40978;52.850;6.506;2022-11-18T09:21:27;6.50;99.90
55083;DHT22;40978;52.850;6.506;2022-11-18T09:23:53;6.60;99.90
55083;DHT22;40978;52.850;6.506;2022-11-18T09:26:19;6.60;99.90
55083;DHT22;40978;52.850;6.506;2022-11-18T09:28:47;6.60;99.90
55083;DHT22;40978;52.850;6.506;2022-11-18T09:31:15;6.50;99.90
55083;DHT22;40978;52.850;6.506;2022-11-18T09:33:41;6.60;99.90
55083;DHT22;40978;52.850;6.506;2022-11-18T09:36:21;6.60;99.90
55083;DHT22;40978;52.850;6.506;2022-11-18T09:38:48;6.60;99.90
55083;DHT22;40978;52.850;6.506;2022-11-18T09:41:46;6.60;99.90
55083;DHT22;40978;52.850;6.506;2022-11-18T09:46:53;6.60;99.90
55083;DHT22;40978;52.850;6.506;2022-11-18T09:49:28;6.60;99.90
55083;DHT22;40978;52.850;6.506;2022-11-18T09:51:55;6.50;99.90
55083;DHT22;40978;52.850;6.506;2022-11-18T09:54:35;6.60;99.90
55083;DHT22;40978;52.850;6.506;2022-11-18T09:57:01;6.50;99.90
55083;DHT22;40978;52.850;6.506;2022-11-18T09:59:30;6.50;99.90
55083;DHT22;40978;52.850;6.506;2022-11-18T10:04:42;6.50;99.90
55083;DHT22;40978;52.850;6.506;2022-11-18T10:07:20;6.50;99.90
55083;DHT22;40978;52.850;6.506;2022-11-18T10:09:48;6.50;99.90
55083;DHT22;40978;52.850;6.506;2022-11-18T10:12:49;6.50;99.90
55083;DHT22;40978;52.850;6.506;2022-11-18T10:15:40;6.50;99.90
55083;DHT22;40978;52.850;6.506;2022-11-18T10:18:29;6.50;99.90
55083;DHT22;40978;52.850;6.506;2022-11-18T10:23:49;6.40;99.90
55083;DHT22;40978;52.850;6.506;2022-11-18T10:26:38;6.50;99.90
55083;DHT22;40978;52.850;6.506;2022-11-18T10:29:05;6.50;99.90
55083;DHT22;40978;52.850;6.506;2022-11-18T10:34:31;6.60;99.90
55083;DHT22;40978;52.850;6.506;2022-11-18T10:37:00;6.50;99.90
55083;DHT22;40978;52.850;6.506;2022-11-18T10:39:26;6.60;99.90
55083;DHT22;40978;52.850;6.506;2022-11-18T10:41:57;6.70;99.90
55083;DHT22;40978;52.850;6.506;2022-11-18T10:44:29;6.70;99.90
55083;DHT22;40978;52.850;6.506;2022-11-18T10:47:05;6.60;99.90
55083;DHT22;40978;52.850;6.506;2022-11-18T10:49:39;6.70;99.90
55083;DHT22;40978;52.850;6.506;2022-11-18T10:52:12;6.60;99.90
55083;DHT22;40978;52.850;6.506;2022-11-18T10:54:39;6.60;99.90
55083;DHT22;40978;52.850;6.506;2022-11-18T10:59:44;6.60;99.90
55083;DHT22;40978;52.850;6.506;2022-11-18T11:04:46;6.60;99.90
55083;DHT22;40978;52.850;6.506;2022-11-18T11:07:32;6.50;99.90
55083;DHT22;40978;52.850;6.506;2022-11-18T11:12:38;6.50;99.90
55083;DHT22;40978;52.850;6.506;2022-11-18T11:15:26;6.50;99.90
55083;DHT22;40978;52.850;6.506;2022-11-18T11:17:58;6.50;99.90
55083;DHT22;40978;52.850;6.506;2022-11-18T11:20:44;6.50;99.90
55083;DHT22;40978;52.850;6.506;2022-11-18T11:23:14;6.50;99.90
55083;DHT22;40978;52.850;6.506;2022-11-18T11:26:06;6.50;99.90
55083;DHT22;40978;52.850;6.506;2022-11-18T11:34:23;6.40;99.90
55083;DHT22;40978;52.850;6.506;2022-11-18T11:42:38;6.40;99.90
55083;DHT22;40978;52.850;6.506;2022-11-18T12:01:58;6.30;99.90
55083;DHT22;40978;52.850;6.506;2022-11-18T12:04:51;6.30;99.90
55083;DHT22;40978;52.850;6.506;2022-11-18T12:07:27;6.30;99.90
55083;DHT22;40978;52.850;6.506;2022-11-18T12:10:01;6.30;99.90
55083;DHT22;40978;52.850;6.506;2022-11-18T12:12:41;6.30;99.90
55083;DHT22;40978;52.850;6.506;2022-11-18T12:17:54;6.20;99.90
55083;DHT22;40978;52.850;6.506;2022-11-18T12:23:19;6.10;99.90
55083;DHT22;40978;52.850;6.506;2022-11-18T12:28:24;6.00;99.90
55083;DHT22;40978;52.850;6.506;2022-11-18T12:33:54;6.00;99.90
55083;DHT22;40978;52.850;6.506;2022-11-18T12:36:32;6.00;99.90
55083;DHT22;40978;52.850;6.506;2022-11-18T12:42:00;6.00;99.90
55083;DHT22;40978;52.850;6.506;2022-11-18T12:44:46;6.00;99.90
55083;DHT22;40978;52.850;6.506;2022-11-18T12:55:14;5.80;99.90
55083;DHT22;40978;52.850;6.506;2022-11-18T12:57:40;5.80;99.90
55083;DHT22;40978;52.850;6.506;2022-11-18T13:00:28;5.80;99.90
55083;DHT22;40978;52.850;6.506;2022-11-18T13:02:59;5.70;99.90
55083;DHT22;40978;52.850;6.506;2022-11-18T13:05:31;5.70;99.90
55083;DHT22;40978;52.850;6.506;2022-11-18T13:08:09;5.70;99.90
55083;DHT22;40978;52.850;6.506;2022-11-18T13:11:09;5.70;99.90
55083;DHT22;40978;52.850;6.506;2022-11-18T13:13:56;5.70;99.90
55083;DHT22;40978;52.850;6.506;2022-11-18T13:16:42;5.60;99.90
55083;DHT22;40978;52.850;6.506;2022-11-18T13:19:26;5.60;99.90
55083;DHT22;40978;52.850;6.506;2022-11-18T13:21:54;5.70;99.90
55083;DHT22;40978;52.850;6.506;2022-11-18T13:24:51;5.60;99.90
55083;DHT22;40978;52.850;6.506;2022-11-18T13:27:46;5.50;99.90
55083;DHT22;40978;52.850;6.506;2022-11-18T13:30:14;5.50;99.90
55083;DHT22;40978;52.850;6.506;2022-11-18T13:32:45;5.40;99.90
55083;DHT22;40978;52.850;6.506;2022-11-18T13:35:20;5.50;99.90
55083;DHT22;40978;52.850;6.506;2022-11-18T13:37:50;5.40;99.90
55083;DHT22;40978;52.850;6.506;2022-11-18T13:40:24;5.40;99.90
55083;DHT22;40978;52.850;6.506;2022-11-18T13:42:51;5.30;99.90
55083;DHT22;40978;52.850;6.506;2022-11-18T13:45:17;5.30;99.90
55083;DHT22;40978;52.850;6.506;2022-11-18T13:47:51;5.30;99.90
55083;DHT22;40978;52.850;6.506;2022-11-18T13:53:23;5.30;99.90
55083;DHT22;40978;52.850;6.506;2022-11-18T13:55:58;5.30;99.90
55083;DHT22;40978;52.850;6.506;2022-11-18T13:58:50;5.20;99.90
55083;DHT22;40978;52.850;6.506;2022-11-18T14:01:25;5.20;99.90
55083;DHT22;40978;52.850;6.506;2022-11-18T14:04:06;5.10;99.90
55083;DHT22;40978;52.850;6.506;2022-11-18T14:06:38;5.20;99.90
55083;DHT22;40978;52.850;6.506;2022-11-18T14:14:34;5.10;99.90
55083;DHT22;40978;52.850;6.506;2022-11-18T14:17:21;5.00;99.90
55083;DHT22;40978;52.850;6.506;2022-11-18T14:19:51;4.90;99.90
55083;DHT22;40978;52.850;6.506;2022-11-18T14:22:28;4.90;99.90
55083;DHT22;40978;52.850;6.506;2022-11-18T14:25:01;4.90;99.90
55083;DHT22;40978;52.850;6.506;2022-11-18T14:29:59;4.90;99.90
55083;DHT22;40978;52.850;6.506;2022-11-18T14:32:25;4.80;99.90
55083;DHT22;40978;52.850;6.506;2022-11-18T14:34:58;4.80;99.90
55083;DHT22;40978;52.850;6.506;2022-11-18T14:37:24;4.80;99.90
55083;DHT22;40978;52.850;6.506;2022-11-18T14:39:57;4.70;99.90
55083;DHT22;40978;52.850;6.506;2022-11-18T14:42:23;4.70;99.90
55083;DHT22;40978;52.850;6.506;2022-11-18T14:44:49;4.70;99.90
55083;DHT22;40978;52.850;6.506;2022-11-18T14:47:25;4.60;99.90
55083;DHT22;40978;52.850;6.506;2022-11-18T14:49:51;4.60;99.90
55083;DHT22;40978;52.850;6.506;2022-11-18T14:52:17;4.60;99.90
55083;DHT22;40978;52.850;6.506;2022-11-18T14:54:43;4.50;99.90
55083;DHT22;40978;52.850;6.506;2022-11-18T14:57:13;4.50;99.90
55083;DHT22;40978;52.850;6.506;2022-11-18T14:59:39;4.50;99.90
55083;DHT22;40978;52.850;6.506;2022-11-18T15:02:12;4.50;99.90
55083;DHT22;40978;52.850;6.506;2022-11-18T15:04:38;4.50;99.90
55083;DHT22;40978;52.850;6.506;2022-11-18T15:07:05;4.40;99.90
55083;DHT22;40978;52.850;6.506;2022-11-18T15:09:31;4.40;99.90
55083;DHT22;40978;52.850;6.506;2022-11-18T15:11:57;4.40;99.90
55083;DHT22;40978;52.850;6.506;2022-11-18T15:14:22;4.40;99.90
55083;DHT22;40978;52.850;6.506;2022-11-18T15:16:48;4.30;99.90
55083;DHT22;40978;52.850;6.506;2022-11-18T15:19:15;4.30;99.90
55083;DHT22;40978;52.850;6.506;2022-11-18T15:21:41;4.20;99.90
55083;DHT22;40978;52.850;6.506;2022-11-18T15:24:07;4.20;99.90
55083;DHT22;40978;52.850;6.506;2022-11-18T15:26:44;4.20;99.90
55083;DHT22;40978;52.850;6.506;2022-11-18T15:29:28;4.20;99.90
55083;DHT22;40978;52.850;6.506;2022-11-18T15:31:54;4.20;99.90
55083;DHT22;40978;52.850;6.506;2022-11-18T15:34:20;4.20;99.90
55083;DHT22;40978;52.850;6.506;2022-11-18T15:36:46;4.10;99.90
55083;DHT22;40978;52.850;6.506;2022-11-18T15:39:12;4.10;99.90
55083;DHT22;40978;52.850;6.506;2022-11-18T15:41:39;4.10;99.90
55083;DHT22;40978;52.850;6.506;2022-11-18T15:44:05;4.00;99.90
55083;DHT22;40978;52.850;6.506;2022-11-18T15:46:31;4.00;99.90
55083;DHT22;40978;52.850;6.506;2022-11-18T15:48:58;3.90;99.90
55083;DHT22;40978;52.850;6.506;2022-11-18T15:51:26;3.90;99.90
55083;DHT22;40978;52.850;6.506;2022-11-18T15:53:52;3.90;99.90
55083;DHT22;40978;52.850;6.506;2022-11-18T15:58:44;3.90;99.90
55083;DHT22;40978;52.850;6.506;2022-11-18T16:01:10;3.80;99.90
55083;DHT22;40978;52.850;6.506;2022-11-18T16:03:36;3.80;99.90
55083;DHT22;40978;52.850;6.506;2022-11-18T16:06:02;3.80;99.90
55083;DHT22;40978;52.850;6.506;2022-11-18T16:08:29;3.80;99.90
55083;DHT22;40978;52.850;6.506;2022-11-18T16:10:55;3.80;99.90
55083;DHT22;40978;52.850;6.506;2022-11-18T16:13:39;3.80;99.90
55083;DHT22;40978;52.850;6.506;2022-11-18T16:16:05;3.70;99.90
55083;DHT22;40978;52.850;6.506;2022-11-18T16:18:31;3.70;99.90
55083;DHT22;40978;52.850;6.506;2022-11-18T16:20:58;3.70;99.90
55083;DHT22;40978;52.850;6.506;2022-11-18T16:23:24;3.70;99.90
55083;DHT22;40978;52.850;6.506;2022-11-18T16:25:52;3.70;99.90
55083;DHT22;40978;52.850;6.506;2022-11-18T16:28:18;3.60;99.90
55083;DHT22;40978;52.850;6.506;2022-11-18T16:30:50;3.60;99.90
55083;DHT22;40978;52.850;6.506;2022-11-18T16:33:34;3.50;99.90
55083;DHT22;40978;52.850;6.506;2022-11-18T16:36:00;3.50;99.90
55083;DHT22;40978;52.850;6.506;2022-11-18T16:38:25;3.60;99.90
55083;DHT22;40978;52.850;6.506;2022-11-18T16:40:58;3.50;99.90
55083;DHT22;40978;52.850;6.506;2022-11-18T16:43:24;3.50;99.90
55083;DHT22;40978;52.850;6.506;2022-11-18T16:45:50;3.50;99.90
55083;DHT22;40978;52.850;6.506;2022-11-18T16:48:18;3.40;99.90
55083;DHT22;40978;52.850;6.506;2022-11-18T16:50:43;3.40;99.90
55083;DHT22;40978;52.850;6.506;2022-11-18T16:53:09;3.40;99.90
55083;DHT22;40978;52.850;6.506;2022-11-18T16:55:35;3.40;99.90
55083;DHT22;40978;52.850;6.506;2022-11-18T16:58:00;3.40;99.90
55083;DHT22;40978;52.850;6.506;2022-11-18T17:00:26;3.40;99.90
55083;DHT22;40978;52.850;6.506;2022-11-18T17:02:55;3.30;99.90
55083;DHT22;40978;52.850;6.506;2022-11-18T17:05:20;3.40;99.90
55083;DHT22;40978;52.850;6.506;2022-11-18T17:07:46;3.30;99.90
55083;DHT22;40978;52.850;6.506;2022-11-18T17:10:12;3.30;99.90
55083;DHT22;40978;52.850;6.506;2022-11-18T17:12:47;3.30;99.90
55083;DHT22;40978;52.850;6.506;2022-11-18T17:15:13;3.30;99.90
55083;DHT22;40978;52.850;6.506;2022-11-18T17:17:39;3.30;99.90
55083;DHT22;40978;52.850;6.506;2022-11-18T17:20:05;3.30;99.90
55083;DHT22;40978;52.850;6.506;2022-11-18T17:22:31;3.20;99.90
55083;DHT22;40978;52.850;6.506;2022-11-18T17:24:57;3.20;99.90
55083;DHT22;40978;52.850;6.506;2022-11-18T17:27:22;3.20;99.90
55083;DHT22;40978;52.850;6.506;2022-11-18T17:29:48;3.20;99.90
55083;DHT22;40978;52.850;6.506;2022-11-18T17:32:18;3.20;99.90
55083;DHT22;40978;52.850;6.506;2022-11-18T17:34:44;3.20;99.90
55083;DHT22;40978;52.850;6.506;2022-11-18T17:37:09;3.20;99.90
55083;DHT22;40978;52.850;6.506;2022-11-18T17:39:35;3.20;99.90
55083;DHT22;40978;52.850;6.506;2022-11-18T17:42:01;3.20;99.90